sensor_id;sensor_type;location;lat;lon;timestamp;pressure;altitude;pressure_sealevel;temperature;humidity
72548;BME280;60570;50.848;6.776;2023-04-27T00:00:42;100834.75;;;12.15;48.19
72548;BME280;60570;50.848;6.776;2023-04-27T00:01:44;100833.13;;;12.14;48.42
72548;BME280;60570;50.848;6.776;2023-04-27T00:02:45;100832.78;;;12.16;48.12
72548;BME280;60570;50.848;6.776;2023-04-27T00:03:52;100834.28;;;12.13;48.12
72548;BME280;60570;50.848;6.776;2023-04-27T00:04:56;100838.72;;;12.14;48.26
72548;BME280;60570;50.848;6.776;2023-04-27T00:05:57;100837.19;;;12.17;48.07
72548;BME280;60570;50.848;6.776;2023-04-27T00:06:58;100834.41;;;12.17;48.07
72548;BME280;60570;50.848;6.776;2023-04-27T00:07:59;100832.09;;;12.19;48.37
72548;BME280;60570;50.848;6.776;2023-04-27T00:09:01;100832.09;;;12.19;48.21
72548;BME280;60570;50.848;6.776;2023-04-27T00:10:02;100841.16;;;12.16;48.32
72548;BME280;60570;50.848;6.776;2023-04-27T00:11:04;100835.56;;;12.16;48.16
72548;BME280;60570;50.848;6.776;2023-04-27T00:12:05;100832.78;;;12.16;48.35
72548;BME280;60570;50.848;6.776;2023-04-27T00:13:07;100836.72;;;12.15;48.53
72548;BME280;60570;50.848;6.776;2023-04-27T00:14:08;100839.50;;;12.15;48.19
72548;BME280;60570;50.848;6.776;2023-04-27T00:15:10;100833.13;;;12.14;48.38
72548;BME280;60570;50.848;6.776;2023-04-27T00:16:11;100837.41;;;12.12;48.42
72548;BME280;60570;50.848;6.776;2023-04-27T00:17:12;100833.13;;;12.14;48.15
72548;BME280;60570;50.848;6.776;2023-04-27T00:18:13;100841.81;;;12.13;48.03
72548;BME280;60570;50.848;6.776;2023-04-27T00:19:16;100838.88;;;12.09;48.42
72548;BME280;60570;50.848;6.776;2023-04-27T00:20:17;100841.00;;;12.12;48.27
72548;BME280;60570;50.848;6.776;2023-04-27T00:21:20;100844.94;;;12.11;48.37
72548;BME280;60570;50.848;6.776;2023-04-27T00:22:20;100839.38;;;12.11;48.33
72548;BME280;60570;50.848;6.776;2023-04-27T00:23:22;100845.41;;;12.13;48.31
72548;BME280;60570;50.848;6.776;2023-04-27T00:24:23;100843.31;;;12.10;48.27
72548;BME280;60570;50.848;6.776;2023-04-27T00:25:25;100845.28;;;12.10;48.52
72548;BME280;60570;50.848;6.776;2023-04-27T00:26:26;100838.88;;;12.09;48.76
72548;BME280;60570;50.848;6.776;2023-04-27T00:27:27;100843.16;;;12.07;48.67
72548;BME280;60570;50.848;6.776;2023-04-27T00:28:28;100838.22;;;12.12;48.48
72548;BME280;60570;50.848;6.776;2023-04-27T00:29:30;100853.28;;;12.11;48.41
72548;BME280;60570;50.848;6.776;2023-04-27T00:30:31;100842.63;;;12.13;48.51
72548;BME280;60570;50.848;6.776;2023-04-27T00:31:32;100837.75;;;12.10;48.38
72548;BME280;60570;50.848;6.776;2023-04-27T00:32:34;100842.97;;;12.12;48.34
72548;BME280;60570;50.848;6.776;2023-04-27T00:33:38;100842.97;;;12.12;48.76
72548;BME280;60570;50.848;6.776;2023-04-27T00:34:40;100849.19;;;12.09;48.59
72548;BME280;60570;50.848;6.776;2023-04-27T00:35:42;100841.66;;;12.09;48.55
72548;BME280;60570;50.848;6.776;2023-04-27T00:36:43;100839.22;;;12.08;48.47
72548;BME280;60570;50.848;6.776;2023-04-27T00:37:45;100838.75;;;12.06;48.45
72548;BME280;60570;50.848;6.776;2023-04-27T00:38:46;100850.72;;;12.06;48.88
72548;BME280;60570;50.848;6.776;2023-04-27T00:39:47;100845.28;;;12.10;48.66
72548;BME280;60570;50.848;6.776;2023-04-27T00:40:48;100851.84;;;12.05;48.51
72548;BME280;60570;50.848;6.776;2023-04-27T00:41:49;100845.63;;;12.08;48.59
72548;BME280;60570;50.848;6.776;2023-04-27T00:42:50;100843.50;;;12.05;48.74
72548;BME280;60570;50.848;6.776;2023-04-27T00:43:52;100840.06;;;12.08;48.76
72548;BME280;60570;50.848;6.776;2023-04-27T00:44:56;100836.78;;;12.06;48.39
72548;BME280;60570;50.848;6.776;2023-04-27T00:45:59;100836.44;;;12.08;48.91
72548;BME280;60570;50.848;6.776;2023-04-27T00:46:59;100830.88;;;12.08;48.45
72548;BME280;60570;50.848;6.776;2023-04-27T00:48:01;100833.19;;;12.06;48.35
72548;BME280;60570;50.848;6.776;2023-04-27T00:49:02;100825.34;;;11.99;48.47
72548;BME280;60570;50.848;6.776;2023-04-27T00:50:07;100826.88;;;11.97;48.73
72548;BME280;60570;50.848;6.776;2023-04-27T00:51:09;100828.69;;;11.93;49.08
72548;BME280;60570;50.848;6.776;2023-04-27T00:52:11;100835.38;;;11.92;48.86
72548;BME280;60570;50.848;6.776;2023-04-27T00:53:12;100844.44;;;11.89;48.80
72548;BME280;60570;50.848;6.776;2023-04-27T00:54:18;100843.25;;;11.90;49.03
72548;BME280;60570;50.848;6.776;2023-04-27T00:55:19;100833.94;;;11.86;49.27
72548;BME280;60570;50.848;6.776;2023-04-27T00:56:21;100835.47;;;11.83;49.29
72548;BME280;60570;50.848;6.776;2023-04-27T00:57:22;100835.78;;;11.82;49.10
72548;BME280;60570;50.848;6.776;2023-04-27T00:58:23;100830.19;;;11.82;48.93
72548;BME280;60570;50.848;6.776;2023-04-27T00:59:24;100836.59;;;11.82;49.45
72548;BME280;60570;50.848;6.776;2023-04-27T01:00:26;100838.06;;;11.80;49.26
72548;BME280;60570;50.848;6.776;2023-04-27T01:01:28;100837.28;;;11.79;49.02
72548;BME280;60570;50.848;6.776;2023-04-27T01:02:30;100835.28;;;11.80;49.03
72548;BME280;60570;50.848;6.776;2023-04-27T01:03:31;100843.63;;;11.80;48.95
72548;BME280;60570;50.848;6.776;2023-04-27T01:04:32;100841.88;;;11.75;49.43
72548;BME280;60570;50.848;6.776;2023-04-27T01:05:40;100834.81;;;11.78;49.18
72548;BME280;60570;50.848;6.776;2023-04-27T01:06:42;100837.44;;;11.74;49.12
72548;BME280;60570;50.848;6.776;2023-04-27T01:07:43;100837.44;;;11.74;48.95
72548;BME280;60570;50.848;6.776;2023-04-27T01:08:44;100835.63;;;11.78;48.94
72548;BME280;60570;50.848;6.776;2023-04-27T01:09:46;100839.88;;;11.76;49.29
72548;BME280;60570;50.848;6.776;2023-04-27T01:10:48;100835.00;;;11.73;49.06
72548;BME280;60570;50.848;6.776;2023-04-27T01:11:49;100842.53;;;11.72;49.40
72548;BME280;60570;50.848;6.776;2023-04-27T01:12:51;100837.78;;;11.73;48.92
72548;BME280;60570;50.848;6.776;2023-04-27T01:13:52;100842.88;;;11.70;49.29
72548;BME280;60570;50.848;6.776;2023-04-27T01:14:56;100838.13;;;11.71;49.21
72548;BME280;60570;50.848;6.776;2023-04-27T01:15:57;100835.84;;;11.73;48.99
72548;BME280;60570;50.848;6.776;2023-04-27T01:16:58;100845.66;;;11.70;48.98
72548;BME280;60570;50.848;6.776;2023-04-27T01:17:59;100838.47;;;11.69;49.01
72548;BME280;60570;50.848;6.776;2023-04-27T01:19:02;100834.53;;;11.70;49.37
72548;BME280;60570;50.848;6.776;2023-04-27T01:20:04;100838.00;;;11.67;49.21
72548;BME280;60570;50.848;6.776;2023-04-27T01:21:11;100838.78;;;11.68;49.42
72548;BME280;60570;50.848;6.776;2023-04-27T01:22:12;100838.00;;;11.67;49.46
72548;BME280;60570;50.848;6.776;2023-04-27T01:23:15;100845.19;;;11.68;49.07
72548;BME280;60570;50.848;6.776;2023-04-27T01:24:17;100850.25;;;11.66;49.12
72548;BME280;60570;50.848;6.776;2023-04-27T01:25:18;100842.88;;;11.62;49.26
72548;BME280;60570;50.848;6.776;2023-04-27T01:26:20;100853.03;;;11.66;49.34
72548;BME280;60570;50.848;6.776;2023-04-27T01:27:22;100845.84;;;11.65;49.12
72548;BME280;60570;50.848;6.776;2023-04-27T01:28:24;100844.53;;;11.63;49.31
72548;BME280;60570;50.848;6.776;2023-04-27T01:29:24;100842.88;;;11.62;49.56
72548;BME280;60570;50.848;6.776;2023-04-27T01:30:26;100845.66;;;11.62;49.34
72548;BME280;60570;50.848;6.776;2023-04-27T01:31:28;100846.13;;;11.64;49.35
72548;BME280;60570;50.848;6.776;2023-04-27T01:32:30;100845.84;;;11.65;49.20
72548;BME280;60570;50.848;6.776;2023-04-27T01:33:31;100847.31;;;11.63;49.28
72548;BME280;60570;50.848;6.776;2023-04-27T01:34:32;100842.56;;;11.63;49.37
72548;BME280;60570;50.848;6.776;2023-04-27T01:35:33;100837.66;;;11.60;49.30
72548;BME280;60570;50.848;6.776;2023-04-27T01:36:36;100840.44;;;11.60;49.58
72548;BME280;60570;50.848;6.776;2023-04-27T01:37:40;100840.28;;;11.57;49.39
72548;BME280;60570;50.848;6.776;2023-04-27T01:38:43;100830.13;;;11.61;49.20
72548;BME280;60570;50.848;6.776;2023-04-27T01:39:44;100842.06;;;11.61;49.26
72548;BME280;60570;50.848;6.776;2023-04-27T01:40:46;100836.50;;;11.61;49.08
72548;BME280;60570;50.848;6.776;2023-04-27T01:41:46;100832.41;;;11.59;49.48
72548;BME280;60570;50.848;6.776;2023-04-27T01:42:48;100837.66;;;11.60;49.31
72548;BME280;60570;50.848;6.776;2023-04-27T01:43:49;100836.03;;;11.59;49.19
72548;BME280;60570;50.848;6.776;2023-04-27T01:44:51;100836.81;;;11.60;49.37
72548;BME280;60570;50.848;6.776;2023-04-27T01:45:51;100839.28;;;11.61;49.45
72548;BME280;60570;50.848;6.776;2023-04-27T01:46:53;100835.53;;;11.57;49.30
72548;BME280;60570;50.848;6.776;2023-04-27T01:47:54;100843.41;;;11.55;49.36
72548;BME280;60570;50.848;6.776;2023-04-27T01:48:56;100841.13;;;11.57;49.10
72548;BME280;60570;50.848;6.776;2023-04-27T01:49:57;100839.16;;;11.58;49.51
72548;BME280;60570;50.848;6.776;2023-04-27T01:50:58;100852.72;;;11.59;49.47
72548;BME280;60570;50.848;6.776;2023-04-27T01:51:59;100851.06;;;11.58;49.62
72548;BME280;60570;50.848;6.776;2023-04-27T01:53:01;100839.47;;;11.56;49.43
72548;BME280;60570;50.848;6.776;2023-04-27T01:54:04;100843.75;;;11.54;49.23
72548;BME280;60570;50.848;6.776;2023-04-27T01:55:07;100849.81;;;11.56;49.39
72548;BME280;60570;50.848;6.776;2023-04-27T01:56:08;100848.16;;;11.55;49.59
72548;BME280;60570;50.848;6.776;2023-04-27T01:57:11;100850.94;;;11.55;49.44
72548;BME280;60570;50.848;6.776;2023-04-27T01:58:12;100846.19;;;11.55;49.71
72548;BME280;60570;50.848;6.776;2023-04-27T01:59:13;100841.28;;;11.52;49.72
72548;BME280;60570;50.848;6.776;2023-04-27T02:00:17;100842.44;;;11.51;49.65
72548;BME280;60570;50.848;6.776;2023-04-27T02:01:21;100839.19;;;11.49;49.69
72548;BME280;60570;50.848;6.776;2023-04-27T02:02:22;100834.44;;;11.50;49.26
72548;BME280;60570;50.848;6.776;2023-04-27T02:03:23;100840.16;;;11.53;49.40
72548;BME280;60570;50.848;6.776;2023-04-27T02:04:24;100838.84;;;11.51;49.39
72548;BME280;60570;50.848;6.776;2023-04-27T02:05:26;100839.31;;;11.53;49.69
72548;BME280;60570;50.848;6.776;2023-04-27T02:06:26;100841.28;;;11.52;49.60
72548;BME280;60570;50.848;6.776;2023-04-27T02:07:28;100843.75;;;11.54;49.53
72548;BME280;60570;50.848;6.776;2023-04-27T02:08:29;100847.66;;;11.53;49.40
72548;BME280;60570;50.848;6.776;2023-04-27T02:09:32;100842.09;;;11.53;49.52
72548;BME280;60570;50.848;6.776;2023-04-27T02:10:33;100838.00;;;11.50;49.53
72548;BME280;60570;50.848;6.776;2023-04-27T02:11:36;100842.09;;;11.53;49.38
72548;BME280;60570;50.848;6.776;2023-04-27T02:12:36;100841.47;;;11.47;49.72
72548;BME280;60570;50.848;6.776;2023-04-27T02:13:38;100844.13;;;11.44;49.77
72548;BME280;60570;50.848;6.776;2023-04-27T02:14:42;100847.53;;;11.49;49.42
72548;BME280;60570;50.848;6.776;2023-04-27T02:15:43;100849.00;;;11.47;49.34
72548;BME280;60570;50.848;6.776;2023-04-27T02:16:44;100842.31;;;11.48;49.52
72548;BME280;60570;50.848;6.776;2023-04-27T02:17:46;100848.34;;;11.50;49.65
72548;BME280;60570;50.848;6.776;2023-04-27T02:18:46;100852.94;;;11.46;49.32
72548;BME280;60570;50.848;6.776;2023-04-27T02:19:51;100847.88;;;11.48;49.49
72548;BME280;60570;50.848;6.776;2023-04-27T02:20:52;100838.56;;;11.44;49.59
72548;BME280;60570;50.848;6.776;2023-04-27T02:21:54;100849.47;;;11.49;49.24
72548;BME280;60570;50.848;6.776;2023-04-27T02:22:55;100841.47;;;11.47;49.26
72548;BME280;60570;50.848;6.776;2023-04-27T02:23:56;100846.06;;;11.43;49.59
72548;BME280;60570;50.848;6.776;2023-04-27T02:24:59;100849.34;;;11.45;49.68
72548;BME280;60570;50.848;6.776;2023-04-27T02:26:01;100840.03;;;11.41;49.82
72548;BME280;60570;50.848;6.776;2023-04-27T02:27:02;100849.00;;;11.47;49.25
72548;BME280;60570;50.848;6.776;2023-04-27T02:28:04;100839.34;;;11.44;49.63
72548;BME280;60570;50.848;6.776;2023-04-27T02:29:04;100841.66;;;11.42;49.41
72548;BME280;60570;50.848;6.776;2023-04-27T02:30:07;100835.78;;;11.44;49.23
72548;BME280;60570;50.848;6.776;2023-04-27T02:31:08;100845.25;;;11.43;49.55
72548;BME280;60570;50.848;6.776;2023-04-27T02:32:10;100846.34;;;11.50;49.23
72548;BME280;60570;50.848;6.776;2023-04-27T02:33:10;100847.19;;;11.51;49.26
72548;BME280;60570;50.848;6.776;2023-04-27T02:34:12;100845.88;;;11.48;49.52
72548;BME280;60570;50.848;6.776;2023-04-27T02:35:13;100847.38;;;11.46;49.35
72548;BME280;60570;50.848;6.776;2023-04-27T02:36:15;100849.69;;;11.44;49.27
72548;BME280;60570;50.848;6.776;2023-04-27T02:37:16;100843.97;;;11.40;49.81
72548;BME280;60570;50.848;6.776;2023-04-27T02:38:18;100844.63;;;11.37;49.86
72548;BME280;60570;50.848;6.776;2023-04-27T02:39:18;100856.22;;;11.39;49.81
72548;BME280;60570;50.848;6.776;2023-04-27T02:40:21;100851.00;;;11.38;50.04
72548;BME280;60570;50.848;6.776;2023-04-27T02:41:22;100852.47;;;11.35;49.65
72548;BME280;60570;50.848;6.776;2023-04-27T02:42:28;100848.38;;;11.33;49.92
72548;BME280;60570;50.848;6.776;2023-04-27T02:43:29;100846.09;;;11.35;49.64
72548;BME280;60570;50.848;6.776;2023-04-27T02:44:31;100841.53;;;11.30;49.95
72548;BME280;60570;50.848;6.776;2023-04-27T02:45:35;100842.81;;;11.33;49.91
72548;BME280;60570;50.848;6.776;2023-04-27T02:46:37;100850.84;;;11.34;49.70
72548;BME280;60570;50.848;6.776;2023-04-27T02:47:39;100845.47;;;11.29;50.24
72548;BME280;60570;50.848;6.776;2023-04-27T02:48:41;100838.63;;;11.27;50.21
72548;BME280;60570;50.848;6.776;2023-04-27T02:49:42;100844.47;;;11.25;49.86
72548;BME280;60570;50.848;6.776;2023-04-27T02:50:44;100837.78;;;11.26;49.94
72548;BME280;60570;50.848;6.776;2023-04-27T02:51:45;100837.44;;;11.28;49.83
72548;BME280;60570;50.848;6.776;2023-04-27T02:52:47;100835.50;;;11.28;49.77
72548;BME280;60570;50.848;6.776;2023-04-27T02:53:48;100833.06;;;11.27;49.83
72548;BME280;60570;50.848;6.776;2023-04-27T02:54:49;100827.66;;;11.22;50.38
72548;BME280;60570;50.848;6.776;2023-04-27T02:55:51;100831.41;;;11.26;49.82
72548;BME280;60570;50.848;6.776;2023-04-27T02:56:53;100830.59;;;11.25;50.15
72548;BME280;60570;50.848;6.776;2023-04-27T02:57:54;100827.81;;;11.25;50.27
72548;BME280;60570;50.848;6.776;2023-04-27T02:58:55;100829.59;;;11.21;49.95
72548;BME280;60570;50.848;6.776;2023-04-27T02:59:56;100833.56;;;11.20;50.13
72548;BME280;60570;50.848;6.776;2023-04-27T03:00:58;100826.53;;;11.23;50.08
72548;BME280;60570;50.848;6.776;2023-04-27T03:01:59;100833.69;;;11.24;49.86
72548;BME280;60570;50.848;6.776;2023-04-27T03:03:01;100830.28;;;11.18;50.06
72548;BME280;60570;50.848;6.776;2023-04-27T03:04:02;100823.41;;;11.16;50.25
72548;BME280;60570;50.848;6.776;2023-04-27T03:05:05;100824.25;;;11.16;49.88
72548;BME280;60570;50.848;6.776;2023-04-27T03:06:07;100824.72;;;11.18;49.98
72548;BME280;60570;50.848;6.776;2023-04-27T03:07:09;100822.44;;;11.20;49.88
72548;BME280;60570;50.848;6.776;2023-04-27T03:08:11;100830.13;;;11.15;50.27
72548;BME280;60570;50.848;6.776;2023-04-27T03:09:13;100822.28;;;11.17;49.74
72548;BME280;60570;50.848;6.776;2023-04-27T03:10:14;100821.47;;;11.16;49.71
72548;BME280;60570;50.848;6.776;2023-04-27T03:11:19;100826.38;;;11.11;49.97
72548;BME280;60570;50.848;6.776;2023-04-27T03:12:20;100827.03;;;11.16;49.97
72548;BME280;60570;50.848;6.776;2023-04-27T03:13:21;100823.75;;;11.14;50.01
72548;BME280;60570;50.848;6.776;2023-04-27T03:14:22;100822.63;;;11.07;50.07
72548;BME280;60570;50.848;6.776;2023-04-27T03:15:25;100820.00;;;11.10;50.03
72548;BME280;60570;50.848;6.776;2023-04-27T03:16:25;100830.78;;;11.12;50.35
72548;BME280;60570;50.848;6.776;2023-04-27T03:17:27;100826.38;;;11.11;49.90
72548;BME280;60570;50.848;6.776;2023-04-27T03:18:28;100837.84;;;11.09;50.22
72548;BME280;60570;50.848;6.776;2023-04-27T03:19:30;100838.50;;;11.06;49.87
72548;BME280;60570;50.848;6.776;2023-04-27T03:20:31;100847.31;;;11.08;50.07
72548;BME280;60570;50.848;6.776;2023-04-27T03:21:33;100836.19;;;11.08;49.81
72548;BME280;60570;50.848;6.776;2023-04-27T03:22:34;100835.22;;;11.04;50.19
72548;BME280;60570;50.848;6.776;2023-04-27T03:23:36;100835.72;;;11.06;50.20
72548;BME280;60570;50.848;6.776;2023-04-27T03:24:36;100833.91;;;11.10;50.07
72548;BME280;60570;50.848;6.776;2023-04-27T03:25:38;100841.75;;;11.08;50.16
72548;BME280;60570;50.848;6.776;2023-04-27T03:26:40;100844.38;;;11.05;50.06
72548;BME280;60570;50.848;6.776;2023-04-27T03:27:42;100843.41;;;11.01;50.16
72548;BME280;60570;50.848;6.776;2023-04-27T03:28:44;100846.84;;;11.06;49.95
72548;BME280;60570;50.848;6.776;2023-04-27T03:29:46;100842.91;;;11.07;50.27
72548;BME280;60570;50.848;6.776;2023-04-27T03:30:47;100842.91;;;11.07;49.88
72548;BME280;60570;50.848;6.776;2023-04-27T03:31:49;100840.94;;;11.08;49.90
72548;BME280;60570;50.848;6.776;2023-04-27T03:32:50;100833.09;;;11.10;50.26
72548;BME280;60570;50.848;6.776;2023-04-27T03:33:51;100837.38;;;11.07;49.98
72548;BME280;60570;50.848;6.776;2023-04-27T03:34:52;100841.94;;;11.03;50.12
72548;BME280;60570;50.848;6.776;2023-04-27T03:35:54;100836.88;;;11.05;50.32
72548;BME280;60570;50.848;6.776;2023-04-27T03:36:55;100837.66;;;11.06;49.78
72548;BME280;60570;50.848;6.776;2023-04-27T03:37:57;100842.09;;;11.07;49.87
72548;BME280;60570;50.848;6.776;2023-04-27T03:38:57;100832.09;;;11.06;49.88
72548;BME280;60570;50.848;6.776;2023-04-27T03:39:59;100825.28;;;11.03;50.13
72548;BME280;60570;50.848;6.776;2023-04-27T03:41:00;100836.03;;;11.05;49.96
72548;BME280;60570;50.848;6.776;2023-04-27T03:42:04;100833.59;;;11.03;49.92
72548;BME280;60570;50.848;6.776;2023-04-27T03:43:05;100836.38;;;11.03;50.35
72548;BME280;60570;50.848;6.776;2023-04-27T03:44:07;100833.75;;;11.07;50.26
72548;BME280;60570;50.848;6.776;2023-04-27T03:45:08;100834.59;;;11.07;49.94
72548;BME280;60570;50.848;6.776;2023-04-27T03:46:11;100832.59;;;11.08;50.25
72548;BME280;60570;50.848;6.776;2023-04-27T03:47:12;100831.47;;;11.09;49.60
72548;BME280;60570;50.848;6.776;2023-04-27T03:48:14;100835.22;;;11.04;50.37
72548;BME280;60570;50.848;6.776;2023-04-27T03:49:15;100837.19;;;11.04;49.96
72548;BME280;60570;50.848;6.776;2023-04-27T03:50:17;100832.09;;;11.06;49.75
72548;BME280;60570;50.848;6.776;2023-04-27T03:51:18;100834.88;;;11.06;50.15
72548;BME280;60570;50.848;6.776;2023-04-27T03:52:20;100834.09;;;11.05;50.04
72548;BME280;60570;50.848;6.776;2023-04-27T03:53:21;100839.97;;;11.04;49.87
72548;BME280;60570;50.848;6.776;2023-04-27T03:54:23;100831.31;;;10.97;49.92
72548;BME280;60570;50.848;6.776;2023-04-27T03:55:26;100839.16;;;10.95;50.23
72548;BME280;60570;50.848;6.776;2023-04-27T03:56:28;100833.94;;;10.93;50.46
72548;BME280;60570;50.848;6.776;2023-04-27T03:57:30;100839.66;;;10.97;50.61
72548;BME280;60570;50.848;6.776;2023-04-27T03:58:32;100846.69;;;11.03;50.25
72548;BME280;60570;50.848;6.776;2023-04-27T03:59:33;100841.31;;;10.98;50.47
72548;BME280;60570;50.848;6.776;2023-04-27T04:00:35;100850.59;;;11.02;49.90
72548;BME280;60570;50.848;6.776;2023-04-27T04:01:38;100847.50;;;11.03;50.30
72548;BME280;60570;50.848;6.776;2023-04-27T04:02:40;100849.59;;;11.06;49.88
72548;BME280;60570;50.848;6.776;2023-04-27T04:03:41;100851.06;;;11.12;49.59
72548;BME280;60570;50.848;6.776;2023-04-27T04:04:43;100850.59;;;11.10;49.89
72548;BME280;60570;50.848;6.776;2023-04-27T04:05:44;100857.94;;;11.06;50.14
72548;BME280;60570;50.848;6.776;2023-04-27T04:06:47;100855.03;;;11.03;49.71
72548;BME280;60570;50.848;6.776;2023-04-27T04:07:48;100850.63;;;10.93;50.33
72548;BME280;60570;50.848;6.776;2023-04-27T04:08:49;100857.66;;;10.91;50.16
72548;BME280;60570;50.848;6.776;2023-04-27T04:09:50;100858.81;;;10.90;49.96
72548;BME280;60570;50.848;6.776;2023-04-27T04:10:51;100855.53;;;10.88;50.19
72548;BME280;60570;50.848;6.776;2023-04-27T04:11:52;100859.78;;;10.85;50.25
72548;BME280;60570;50.848;6.776;2023-04-27T04:12:56;100857.00;;;10.85;50.65
72548;BME280;60570;50.848;6.776;2023-04-27T04:13:58;100853.25;;;10.81;50.63
72548;BME280;60570;50.848;6.776;2023-04-27T04:15:02;100858.16;;;10.84;50.69
72548;BME280;60570;50.848;6.776;2023-04-27T04:16:07;100853.09;;;10.77;50.64
72548;BME280;60570;50.848;6.776;2023-04-27T04:17:09;100854.56;;;10.75;50.60
72548;BME280;60570;50.848;6.776;2023-04-27T04:18:12;100852.75;;;10.79;50.40
72548;BME280;60570;50.848;6.776;2023-04-27T04:19:16;100852.28;;;10.77;50.54
72548;BME280;60570;50.848;6.776;2023-04-27T04:20:18;100855.38;;;10.75;50.73
72548;BME280;60570;50.848;6.776;2023-04-27T04:21:20;100871.22;;;10.75;50.77
72548;BME280;60570;50.848;6.776;2023-04-27T04:22:21;100863.72;;;10.67;50.58
72548;BME280;60570;50.848;6.776;2023-04-27T04:23:22;100868.78;;;10.73;50.75
72548;BME280;60570;50.848;6.776;2023-04-27T04:24:23;100865.03;;;10.69;50.88
72548;BME280;60570;50.848;6.776;2023-04-27T04:25:25;100869.94;;;10.72;50.60
72548;BME280;60570;50.848;6.776;2023-04-27T04:26:27;100874.00;;;10.75;50.74
72548;BME280;60570;50.848;6.776;2023-04-27T04:27:30;100864.69;;;10.71;50.91
72548;BME280;60570;50.848;6.776;2023-04-27T04:28:32;100867.81;;;10.69;50.89
72548;BME280;60570;50.848;6.776;2023-04-27T04:29:34;100874.19;;;10.70;50.69
72548;BME280;60570;50.848;6.776;2023-04-27T04:30:34;100876.31;;;10.73;50.87
72548;BME280;60570;50.848;6.776;2023-04-27T04:31:37;100874.34;;;10.73;50.93
72548;BME280;60570;50.848;6.776;2023-04-27T04:32:41;100873.84;;;10.71;50.57
72548;BME280;60570;50.848;6.776;2023-04-27T04:33:46;100875.31;;;10.69;51.02
72548;BME280;60570;50.848;6.776;2023-04-27T04:34:48;100867.16;;;10.72;50.95
72548;BME280;60570;50.848;6.776;2023-04-27T04:35:50;100875.97;;;10.74;50.50
72548;BME280;60570;50.848;6.776;2023-04-27T04:36:53;100869.94;;;10.72;50.76
72548;BME280;60570;50.848;6.776;2023-04-27T04:37:55;100876.13;;;10.69;50.63
72548;BME280;60570;50.848;6.776;2023-04-27T04:39:02;100877.13;;;10.73;50.38
72548;BME280;60570;50.848;6.776;2023-04-27T04:40:05;100876.31;;;10.73;50.42
72548;BME280;60570;50.848;6.776;2023-04-27T04:41:11;100881.53;;;10.74;50.74
72548;BME280;60570;50.848;6.776;2023-04-27T04:42:12;100873.88;;;10.80;50.68
72548;BME280;60570;50.848;6.776;2023-04-27T04:43:14;100883.19;;;10.84;50.49
72548;BME280;60570;50.848;6.776;2023-04-27T04:44:16;100880.22;;;10.89;50.07
72548;BME280;60570;50.848;6.776;2023-04-27T04:45:19;100885.44;;;10.91;50.42
72548;BME280;60570;50.848;6.776;2023-04-27T04:46:23;100886.41;;;10.95;50.00
72548;BME280;60570;50.848;6.776;2023-04-27T04:47:25;100874.66;;;10.98;50.03
72548;BME280;60570;50.848;6.776;2023-04-27T04:48:27;100880.03;;;10.94;49.85
72548;BME280;60570;50.848;6.776;2023-04-27T04:49:28;100883.66;;;10.95;49.96
72548;BME280;60570;50.848;6.776;2023-04-27T04:50:30;100881.69;;;10.95;50.19
72548;BME280;60570;50.848;6.776;2023-04-27T04:51:31;100881.53;;;10.92;50.26
72548;BME280;60570;50.848;6.776;2023-04-27T04:52:33;100881.34;;;10.97;50.05
72548;BME280;60570;50.848;6.776;2023-04-27T04:53:33;100884.28;;;11.00;49.69
72548;BME280;60570;50.848;6.776;2023-04-27T04:54:36;100880.22;;;10.98;50.22
72548;BME280;60570;50.848;6.776;2023-04-27T04:55:37;100883.50;;;11.00;49.88
72548;BME280;60570;50.848;6.776;2023-04-27T04:56:41;100877.25;;;10.94;50.04
72548;BME280;60570;50.848;6.776;2023-04-27T04:57:42;100885.09;;;10.92;50.23
72548;BME280;60570;50.848;6.776;2023-04-27T04:58:45;100884.31;;;10.92;50.29
72548;BME280;60570;50.848;6.776;2023-04-27T04:59:49;100883.66;;;10.95;50.13
72548;BME280;60570;50.848;6.776;2023-04-27T05:00:50;100882.81;;;10.94;50.02
72548;BME280;60570;50.848;6.776;2023-04-27T05:01:54;100881.19;;;10.93;50.08
72548;BME280;60570;50.848;6.776;2023-04-27T05:02:57;100886.09;;;10.96;50.16
72548;BME280;60570;50.848;6.776;2023-04-27T05:04:01;100881.69;;;10.95;49.83
72548;BME280;60570;50.848;6.776;2023-04-27T05:05:05;100882.31;;;10.92;50.19
72548;BME280;60570;50.848;6.776;2023-04-27T05:06:09;100885.59;;;10.94;49.79
72548;BME280;60570;50.848;6.776;2023-04-27T05:07:12;100877.09;;;10.91;50.01
72548;BME280;60570;50.848;6.776;2023-04-27T05:08:16;100885.44;;;10.91;50.21
72548;BME280;60570;50.848;6.776;2023-04-27T05:09:19;100876.63;;;10.89;49.96
72548;BME280;60570;50.848;6.776;2023-04-27T05:10:22;100884.94;;;10.89;50.26
72548;BME280;60570;50.848;6.776;2023-04-27T05:11:25;100889.38;;;10.90;49.93
72548;BME280;60570;50.848;6.776;2023-04-27T05:12:28;100885.63;;;10.86;50.35
72548;BME280;60570;50.848;6.776;2023-04-27T05:13:31;100884.81;;;10.85;50.11
72548;BME280;60570;50.848;6.776;2023-04-27T05:14:35;100885.63;;;10.86;50.40
72548;BME280;60570;50.848;6.776;2023-04-27T05:15:40;100888.56;;;10.80;50.36
72548;BME280;60570;50.848;6.776;2023-04-27T05:16:43;100890.53;;;10.80;50.18
72548;BME280;60570;50.848;6.776;2023-04-27T05:17:47;100893.31;;;10.80;50.29
72548;BME280;60570;50.848;6.776;2023-04-27T05:18:49;100902.28;;;10.77;50.38
72548;BME280;60570;50.848;6.776;2023-04-27T05:19:53;100884.31;;;10.74;50.64
72548;BME280;60570;50.848;6.776;2023-04-27T05:20:55;100894.13;;;10.72;50.77
72548;BME280;60570;50.848;6.776;2023-04-27T05:21:58;100898.03;;;10.71;50.79
72548;BME280;60570;50.848;6.776;2023-04-27T05:23:00;100900.50;;;10.72;50.64
72548;BME280;60570;50.848;6.776;2023-04-27T05:24:04;100897.53;;;10.69;50.63